Time;durP1;ratioP1;P1;durP2;ratioP2;P2;SDS_P1;SDS_P2;PMS_P1;PMS_P2;Temp;Humidity;BMP_temperature;BMP_pressure;BME280_temperature;BME280_humidity;BME280_pressure;Samples;Min_cycle;Max_cycle;Signal;HPM_P1;HPM_P2
2021/04/23 00:01:59;;;;;;;16.53;8.40;;;;;;;;;;742819;186;925280;-70
2021/04/23 00:04:27;;;;;;;14.85;7.60;;;;;;;;;;757484;182;938318;-70
2021/04/23 00:06:52;;;;;;;16.00;6.70;;;;;;;;;;749527;182;918310;-70
2021/04/23 00:09:18;;;;;;;18.33;7.20;;;;;;;;;;753183;182;960162;-71
2021/04/23 00:11:45;;;;;;;14.37;6.60;;;;;;;;;;754737;182;915422;-70
2021/04/23 00:14:10;;;;;;;11.63;7.10;;;;;;;;;;759622;182;916597;-70
2021/04/23 00:16:36;;;;;;;20.13;8.33;;;;;;;;;;752205;182;915399;-69
2021/04/23 00:19:02;;;;;;;15.83;7.73;;;;;;;;;;757961;181;920577;-69
2021/04/23 00:21:27;;;;;;;13.67;7.23;;;;;;;;;;759943;182;953694;-68
2021/04/23 00:23:53;;;;;;;12.90;8.50;;;;;;;;;;754292;182;921701;-70
2021/04/23 00:26:19;;;;;;;14.50;8.47;;;;;;;;;;755008;182;916102;-69
2021/04/23 00:28:45;;;;;;;14.63;7.90;;;;;;;;;;757620;182;920971;-70
2021/04/23 00:31:11;;;;;;;18.00;8.90;;;;;;;;;;745908;182;946780;-70
2021/04/23 00:33:37;;;;;;;17.20;9.10;;;;;;;;;;740578;185;917976;-69
2021/04/23 00:36:03;;;;;;;13.85;8.55;;;;;;;;;;749677;182;919802;-70
2021/04/23 00:38:28;;;;;;;13.50;7.90;;;;;;;;;;757747;182;927299;-69
2021/04/23 00:40:55;;;;;;;19.53;8.47;;;;;;;;;;752264;182;916544;-74
2021/04/23 00:43:21;;;;;;;16.30;8.83;;;;;;;;;;752845;182;918310;-69
2021/04/23 00:45:48;;;;;;;15.95;8.25;;;;;;;;;;757485;183;1018676;-70
2021/04/23 00:48:13;;;;;;;21.17;8.00;;;;;;;;;;750943;183;920162;-70
2021/04/23 00:50:44;;;;;;;13.70;8.30;;;;;;;;;;753759;183;920480;-70
2021/04/23 00:53:10;;;;;;;13.27;8.27;;;;;;;;;;755400;181;1084121;-70
2021/04/23 00:55:36;;;;;;;16.92;9.52;;;;;;;;;;751570;186;920207;-69
2021/04/23 00:58:02;;;;;;;16.20;9.80;;;;;;;;;;758424;181;921126;-69
2021/04/23 01:00:28;;;;;;;15.60;8.67;;;;;;;;;;756490;182;927660;-70
2021/04/23 01:02:53;;;;;;;18.33;10.33;;;;;;;;;;758989;182;918804;-69
2021/04/23 01:05:19;;;;;;;20.90;10.00;;;;;;;;;;755014;182;920444;-70
2021/04/23 01:07:45;;;;;;;21.40;10.93;;;;;;;;;;749825;182;923439;-71
2021/04/23 01:10:12;;;;;;;19.37;9.63;;;;;;;;;;765594;182;616241;-70
2021/04/23 01:12:37;;;;;;;18.97;9.67;;;;;;;;;;752411;182;919231;-70
2021/04/23 01:15:04;;;;;;;29.60;11.50;;;;;;;;;;759138;182;919247;-71
2021/04/23 01:17:30;;;;;;;20.73;10.50;;;;;;;;;;743313;186;919694;-70
2021/04/23 01:19:55;;;;;;;27.20;11.27;;;;;;;;;;720113;191;919298;-70
2021/04/23 01:22:21;;;;;;;22.53;11.60;;;;;;;;;;741225;185;922322;-70
2021/04/23 01:24:47;;;;;;;18.60;11.63;;;;;;;;;;740682;185;918800;-69
2021/04/23 01:27:13;;;;;;;30.95;11.77;;;;;;;;;;751310;186;919368;-69
2021/04/23 01:29:39;;;;;;;22.53;10.60;;;;;;;;;;743758;185;919313;-71
2021/04/23 01:32:05;;;;;;;17.63;10.83;;;;;;;;;;746676;185;922501;-71
2021/04/23 01:34:30;;;;;;;14.87;8.70;;;;;;;;;;731279;185;4364038;-71
2021/04/23 01:36:56;;;;;;;30.88;12.27;;;;;;;;;;759881;182;924901;-71
2021/04/23 01:39:22;;;;;;;17.55;10.35;;;;;;;;;;750488;182;973259;-71
2021/04/23 01:41:48;;;;;;;20.00;10.40;;;;;;;;;;759099;181;916209;-71
2021/04/23 01:44:14;;;;;;;15.17;9.93;;;;;;;;;;752665;183;918896;-71
2021/04/23 01:46:40;;;;;;;14.53;9.37;;;;;;;;;;755101;183;920208;-72
2021/04/23 01:49:05;;;;;;;21.67;10.10;;;;;;;;;;748875;182;921787;-71
2021/04/23 01:51:31;;;;;;;16.50;11.23;;;;;;;;;;764740;182;914620;-71
2021/04/23 01:53:57;;;;;;;16.27;9.63;;;;;;;;;;741514;185;922340;-71
2021/04/23 01:56:23;;;;;;;15.50;10.10;;;;;;;;;;742046;185;919956;-72
2021/04/23 01:58:49;;;;;;;14.87;9.57;;;;;;;;;;746242;186;918692;-71
2021/04/23 02:01:15;;;;;;;12.83;8.63;;;;;;;;;;754435;182;1150881;-71
2021/04/23 02:03:40;;;;;;;17.42;9.13;;;;;;;;;;755626;182;921048;-70
2021/04/23 02:06:08;;;;;;;21.03;8.33;;;;;;;;;;756635;182;912827;-72
2021/04/23 02:08:32;;;;;;;22.23;9.00;;;;;;;;;;755583;181;917112;-72
2021/04/23 02:10:58;;;;;;;19.63;8.63;;;;;;;;;;741998;184;1016300;-71
2021/04/23 02:13:25;;;;;;;17.87;10.02;;;;;;;;;;742054;186;916870;-71
2021/04/23 02:15:51;;;;;;;17.13;8.50;;;;;;;;;;721062;191;920752;-70
2021/04/23 02:18:17;;;;;;;19.90;10.13;;;;;;;;;;742486;184;919469;-71
2021/04/23 02:20:43;;;;;;;15.98;10.40;;;;;;;;;;744208;183;919291;-71
2021/04/23 02:23:09;;;;;;;18.63;9.53;;;;;;;;;;747841;185;934670;-71
2021/04/23 02:25:36;;;;;;;19.55;9.65;;;;;;;;;;731271;188;916881;-70
2021/04/23 02:28:00;;;;;;;19.43;11.53;;;;;;;;;;753686;180;919179;-71
2021/04/23 02:30:27;;;;;;;17.60;10.47;;;;;;;;;;760413;182;919397;-71
2021/04/23 02:32:53;;;;;;;23.87;10.20;;;;;;;;;;758863;182;919229;-69
2021/04/23 02:35:19;;;;;;;22.73;10.20;;;;;;;;;;760287;183;943758;-70
2021/04/23 02:37:45;;;;;;;34.30;11.87;;;;;;;;;;756620;182;920034;-71
2021/04/23 02:40:12;;;;;;;23.23;11.63;;;;;;;;;;755726;182;919165;-71
2021/04/23 02:42:38;;;;;;;26.83;11.97;;;;;;;;;;746725;185;919482;-71
2021/04/23 02:45:04;;;;;;;23.43;10.10;;;;;;;;;;740147;186;918144;-70
2021/04/23 02:47:30;;;;;;;19.20;11.60;;;;;;;;;;741793;187;918146;-70
2021/04/23 02:49:55;;;;;;;27.57;12.30;;;;;;;;;;743081;185;918264;-71
2021/04/23 02:52:21;;;;;;;27.23;11.80;;;;;;;;;;751134;181;1025348;-71
2021/04/23 02:54:47;;;;;;;25.83;11.67;;;;;;;;;;755604;183;920362;-70
2021/04/23 02:57:13;;;;;;;27.57;11.90;;;;;;;;;;758289;181;918036;-70
2021/04/23 02:59:39;;;;;;;28.27;13.30;;;;;;;;;;756120;182;919822;-70
2021/04/23 03:02:05;;;;;;;24.53;11.23;;;;;;;;;;755639;184;919093;-69
2021/04/23 03:04:31;;;;;;;20.33;11.13;;;;;;;;;;753000;182;919285;-70
2021/04/23 03:06:56;;;;;;;18.33;11.23;;;;;;;;;;750417;182;1172163;-69
2021/04/23 03:09:22;;;;;;;29.40;11.03;;;;;;;;;;756427;182;919047;-69
2021/04/23 03:11:48;;;;;;;24.23;11.38;;;;;;;;;;758458;182;921087;-69
2021/04/23 03:14:14;;;;;;;19.30;11.23;;;;;;;;;;751293;182;919911;-70
2021/04/23 03:16:40;;;;;;;24.05;10.60;;;;;;;;;;755110;181;919854;-70
2021/04/23 03:19:12;;;;;;;23.27;11.50;;;;;;;;;;749647;184;920454;-70
2021/04/23 03:21:37;;;;;;;24.27;9.95;;;;;;;;;;757237;183;934819;-71
2021/04/23 03:24:04;;;;;;;26.00;9.90;;;;;;;;;;751334;182;925222;-70
2021/04/23 03:26:30;;;;;;;28.33;10.70;;;;;;;;;;754701;182;919931;-69
2021/04/23 03:28:56;;;;;;;25.35;10.73;;;;;;;;;;756140;182;896727;-70
2021/04/23 03:31:21;;;;;;;18.83;10.20;;;;;;;;;;754812;182;940909;-68
2021/04/23 03:33:47;;;;;;;19.08;9.05;;;;;;;;;;752922;181;919178;-68
2021/04/23 03:36:13;;;;;;;27.33;11.90;;;;;;;;;;761489;182;919855;-69
2021/04/23 03:38:39;;;;;;;24.37;11.27;;;;;;;;;;753354;183;919766;-69
2021/04/23 03:41:05;;;;;;;16.57;10.37;;;;;;;;;;755834;182;916472;-69
2021/04/23 03:43:31;;;;;;;25.73;13.33;;;;;;;;;;763030;181;915840;-71
2021/04/23 03:45:57;;;;;;;23.00;10.70;;;;;;;;;;757872;182;915986;-69
2021/04/23 03:48:22;;;;;;;17.20;9.93;;;;;;;;;;745688;181;2828819;-69
2021/04/23 03:50:49;;;;;;;34.85;11.55;;;;;;;;;;761751;182;919233;-69
2021/04/23 03:53:15;;;;;;;17.47;9.10;;;;;;;;;;754427;182;1021784;-69
2021/04/23 03:55:41;;;;;;;18.90;9.23;;;;;;;;;;743491;185;919554;-69
2021/04/23 03:58:07;;;;;;;22.17;7.23;;;;;;;;;;744313;186;919347;-69
2021/04/23 04:00:32;;;;;;;19.13;9.03;;;;;;;;;;757133;182;919028;-69
2021/04/23 04:02:58;;;;;;;17.10;8.83;;;;;;;;;;742833;185;919113;-68
2021/04/23 04:05:24;;;;;;;18.37;9.47;;;;;;;;;;744130;182;946392;-68
2021/04/23 04:07:50;;;;;;;30.37;9.50;;;;;;;;;;754249;182;924925;-67
2021/04/23 04:10:16;;;;;;;21.12;9.27;;;;;;;;;;750383;182;919034;-67
2021/04/23 04:12:42;;;;;;;19.97;9.70;;;;;;;;;;758304;182;631416;-68
2021/04/23 04:15:08;;;;;;;14.37;8.30;;;;;;;;;;761084;181;1060765;-68
2021/04/23 04:17:34;;;;;;;18.43;7.80;;;;;;;;;;755283;182;918781;-67
2021/04/23 04:19:59;;;;;;;15.93;8.00;;;;;;;;;;751505;181;919352;-68
2021/04/23 04:22:25;;;;;;;12.87;8.10;;;;;;;;;;756539;182;918959;-67
2021/04/23 04:24:51;;;;;;;15.17;7.97;;;;;;;;;;758644;183;919096;-67
2021/04/23 04:27:17;;;;;;;16.70;9.00;;;;;;;;;;755317;182;918466;-67
2021/04/23 04:29:43;;;;;;;18.07;9.97;;;;;;;;;;752294;182;920037;-67
2021/04/23 04:32:09;;;;;;;16.97;9.27;;;;;;;;;;752287;184;919981;-66
2021/04/23 04:34:35;;;;;;;17.97;8.67;;;;;;;;;;750080;182;1127526;-67
2021/04/23 04:37:01;;;;;;;24.27;8.63;;;;;;;;;;750773;181;919435;-66
2021/04/23 04:39:27;;;;;;;24.27;9.30;;;;;;;;;;761011;182;919705;-66
2021/04/23 04:41:53;;;;;;;18.60;10.30;;;;;;;;;;752999;181;1041308;-67
2021/04/23 04:44:19;;;;;;;17.20;8.87;;;;;;;;;;755230;180;919495;-65
2021/04/23 04:46:44;;;;;;;14.83;10.47;;;;;;;;;;754381;182;878322;-65
2021/04/23 04:49:10;;;;;;;20.00;8.63;;;;;;;;;;750024;184;919005;-66
2021/04/23 04:51:36;;;;;;;20.00;10.47;;;;;;;;;;749249;182;919202;-67
2021/04/23 04:54:04;;;;;;;19.83;9.37;;;;;;;;;;742842;186;922084;-66
2021/04/23 04:56:28;;;;;;;16.33;8.80;;;;;;;;;;752802;185;919257;-66
2021/04/23 04:58:54;;;;;;;24.20;10.13;;;;;;;;;;753706;183;918797;-66
2021/04/23 05:01:20;;;;;;;19.50;8.80;;;;;;;;;;755189;181;919466;-65
2021/04/23 05:03:47;;;;;;;16.23;10.37;;;;;;;;;;758994;183;918006;-66
2021/04/23 05:06:15;;;;;;;14.97;8.33;;;;;;;;;;751067;182;920990;-65
2021/04/23 05:08:41;;;;;;;17.43;9.03;;;;;;;;;;754138;182;919099;-67
2021/04/23 05:11:07;;;;;;;13.83;9.13;;;;;;;;;;753986;182;918268;-66
2021/04/23 05:13:32;;;;;;;23.53;9.80;;;;;;;;;;758278;181;919171;-66
2021/04/23 05:15:58;;;;;;;33.87;9.93;;;;;;;;;;751232;182;919171;-66
2021/04/23 05:18:26;;;;;;;26.35;9.95;;;;;;;;;;757775;182;916354;-66
2021/04/23 05:20:52;;;;;;;21.07;9.20;;;;;;;;;;740233;186;918881;-66
2021/04/23 05:23:18;;;;;;;19.83;8.10;;;;;;;;;;743157;185;918764;-66
2021/04/23 05:25:44;;;;;;;18.40;9.90;;;;;;;;;;742269;186;919468;-66
2021/04/23 05:28:09;;;;;;;18.23;9.40;;;;;;;;;;739796;186;919168;-66
2021/04/23 05:30:35;;;;;;;14.87;9.87;;;;;;;;;;744201;185;919335;-66
2021/04/23 05:33:01;;;;;;;22.10;9.38;;;;;;;;;;751701;181;919613;-66
2021/04/23 05:35:27;;;;;;;26.20;9.27;;;;;;;;;;760384;181;919058;-66
2021/04/23 05:37:53;;;;;;;13.73;7.95;;;;;;;;;;750808;185;920973;-65
2021/04/23 05:40:19;;;;;;;23.67;8.23;;;;;;;;;;755641;182;919244;-65
2021/04/23 05:42:44;;;;;;;18.35;8.75;;;;;;;;;;749343;182;1272735;-67
2021/04/23 05:45:11;;;;;;;18.83;9.93;;;;;;;;;;763547;182;886226;-65
2021/04/23 05:47:36;;;;;;;15.40;8.10;;;;;;;;;;756378;182;916066;-65
2021/04/23 05:50:02;;;;;;;10.60;7.17;;;;;;;;;;756002;182;921025;-66
2021/04/23 05:52:28;;;;;;;28.00;9.30;;;;;;;;;;761011;182;919301;-65
2021/04/23 05:54:54;;;;;;;22.20;8.57;;;;;;;;;;753065;180;919674;-65
2021/04/23 05:57:20;;;;;;;15.93;9.23;;;;;;;;;;757988;182;1021290;-64
2021/04/23 05:59:46;;;;;;;19.70;9.67;;;;;;;;;;755063;182;917920;-64
2021/04/23 06:02:11;;;;;;;24.33;8.98;;;;;;;;;;758978;181;917980;-65
2021/04/23 06:04:37;;;;;;;14.90;8.20;;;;;;;;;;753005;181;1168094;-65
2021/04/23 06:07:03;;;;;;;17.33;8.90;;;;;;;;;;755197;182;918889;-64
2021/04/23 06:09:29;;;;;;;22.23;9.43;;;;;;;;;;758059;182;918736;-64
2021/04/23 06:11:55;;;;;;;18.43;7.80;;;;;;;;;;754305;182;936582;-66
2021/04/23 06:14:23;;;;;;;14.43;8.70;;;;;;;;;;755859;181;920956;-64
2021/04/23 06:16:48;;;;;;;25.10;9.57;;;;;;;;;;767949;182;916395;-65
2021/04/23 06:19:14;;;;;;;10.60;7.03;;;;;;;;;;748959;182;917238;-65
2021/04/23 06:21:40;;;;;;;26.97;10.40;;;;;;;;;;754600;181;919531;-63
2021/04/23 06:24:07;;;;;;;19.33;9.10;;;;;;;;;;756261;182;919626;-63
2021/04/23 06:26:34;;;;;;;15.35;9.10;;;;;;;;;;754246;182;1283836;-64
2021/04/23 06:28:59;;;;;;;18.30;8.63;;;;;;;;;;754782;182;920639;-64
2021/04/23 06:31:25;;;;;;;19.23;8.07;;;;;;;;;;746572;182;924479;-64
2021/04/23 06:33:51;;;;;;;23.47;9.77;;;;;;;;;;743354;186;918818;-66
2021/04/23 06:36:17;;;;;;;19.30;9.80;;;;;;;;;;749131;182;919508;-64
2021/04/23 06:38:43;;;;;;;20.53;10.30;;;;;;;;;;755710;182;919765;-64
2021/04/23 06:41:09;;;;;;;25.77;11.10;;;;;;;;;;755210;182;916944;-64
2021/04/23 06:43:35;;;;;;;20.17;9.93;;;;;;;;;;752338;182;919802;-64
2021/04/23 06:46:00;;;;;;;13.07;8.27;;;;;;;;;;749717;182;919454;-64
2021/04/23 06:48:27;;;;;;;11.40;7.20;;;;;;;;;;760082;182;920051;-62
2021/04/23 06:50:53;;;;;;;24.58;9.15;;;;;;;;;;744061;185;1022994;-64
2021/04/23 06:53:19;;;;;;;18.40;8.00;;;;;;;;;;743885;185;919605;-64
2021/04/23 06:55:45;;;;;;;13.88;8.95;;;;;;;;;;738144;186;924691;-64
2021/04/23 06:58:10;;;;;;;15.60;8.87;;;;;;;;;;756313;182;918687;-66
2021/04/23 07:00:37;;;;;;;22.43;8.90;;;;;;;;;;748349;182;917927;-64
2021/04/23 07:03:02;;;;;;;15.60;8.90;;;;;;;;;;754695;181;1001091;-65
2021/04/23 07:05:28;;;;;;;19.60;8.17;;;;;;;;;;758618;182;1020748;-65
2021/04/23 07:07:54;;;;;;;15.03;8.67;;;;;;;;;;751721;181;918562;-64
2021/04/23 07:10:20;;;;;;;16.57;9.10;;;;;;;;;;756136;182;918480;-65
2021/04/23 07:12:46;;;;;;;8.90;7.00;;;;;;;;;;756081;182;910092;-64
2021/04/23 07:15:14;;;;;;;12.47;7.33;;;;;;;;;;756833;182;925310;-65
2021/04/23 07:17:38;;;;;;;10.07;7.93;;;;;;;;;;751802;182;919129;-63
2021/04/23 07:20:04;;;;;;;12.53;7.93;;;;;;;;;;755950;182;919292;-64
2021/04/23 07:22:30;;;;;;;13.27;6.90;;;;;;;;;;757479;182;946234;-66
2021/04/23 07:24:56;;;;;;;15.33;7.77;;;;;;;;;;758142;181;625349;-65
2021/04/23 07:27:22;;;;;;;17.65;9.02;;;;;;;;;;752751;182;917943;-64
2021/04/23 07:29:48;;;;;;;15.77;9.10;;;;;;;;;;763672;182;819324;-65
2021/04/23 07:32:14;;;;;;;11.87;8.33;;;;;;;;;;755357;182;946197;-66
2021/04/23 07:34:39;;;;;;;14.30;8.57;;;;;;;;;;760277;182;639123;-65
2021/04/23 07:37:05;;;;;;;17.10;8.43;;;;;;;;;;758107;182;920199;-67
2021/04/23 07:39:31;;;;;;;17.17;8.40;;;;;;;;;;753332;182;921101;-64
2021/04/23 07:41:57;;;;;;;24.35;9.95;;;;;;;;;;755378;182;916806;-64
2021/04/23 07:44:23;;;;;;;23.07;10.10;;;;;;;;;;751246;182;918384;-64
2021/04/23 07:46:49;;;;;;;14.15;8.27;;;;;;;;;;755900;182;920179;-65
2021/04/23 07:49:14;;;;;;;14.97;8.10;;;;;;;;;;744861;184;919602;-64
2021/04/23 07:51:42;;;;;;;13.07;8.18;;;;;;;;;;742289;185;919632;-64
2021/04/23 07:54:08;;;;;;;18.23;9.17;;;;;;;;;;750266;182;910268;-65
2021/04/23 07:56:33;;;;;;;15.43;7.70;;;;;;;;;;753961;182;921710;-65
2021/04/23 07:58:59;;;;;;;18.27;9.03;;;;;;;;;;750500;182;918859;-65
2021/04/23 08:01:25;;;;;;;14.50;8.87;;;;;;;;;;762887;182;919842;-65
2021/04/23 08:03:51;;;;;;;18.43;8.40;;;;;;;;;;754648;182;919639;-66
2021/04/23 08:06:17;;;;;;;21.70;10.33;;;;;;;;;;757061;181;918834;-66
2021/04/23 08:08:43;;;;;;;14.13;9.57;;;;;;;;;;753097;183;919199;-65
2021/04/23 08:11:09;;;;;;;15.57;8.87;;;;;;;;;;749711;184;918641;-65
2021/04/23 08:13:35;;;;;;;17.10;7.83;;;;;;;;;;746290;182;919912;-65
2021/04/23 08:16:01;;;;;;;11.13;7.40;;;;;;;;;;742943;185;919477;-69
2021/04/23 08:18:27;;;;;;;14.73;7.83;;;;;;;;;;749384;185;919587;-66
2021/04/23 08:20:53;;;;;;;13.57;7.33;;;;;;;;;;740820;185;919679;-65
2021/04/23 08:23:19;;;;;;;10.70;6.85;;;;;;;;;;744494;185;918300;-65
2021/04/23 08:25:45;;;;;;;13.07;7.63;;;;;;;;;;758570;182;921507;-65
2021/04/23 08:28:10;;;;;;;16.67;7.10;;;;;;;;;;756156;182;916688;-66
2021/04/23 08:30:36;;;;;;;19.85;8.90;;;;;;;;;;754831;181;919071;-65
2021/04/23 08:33:02;;;;;;;13.43;6.97;;;;;;;;;;762090;182;917492;-65
2021/04/23 08:35:28;;;;;;;12.87;7.37;;;;;;;;;;750510;182;938532;-66
2021/04/23 08:37:54;;;;;;;9.80;6.63;;;;;;;;;;756729;181;904878;-65
2021/04/23 08:40:20;;;;;;;15.60;6.80;;;;;;;;;;754847;182;973887;-66
2021/04/23 08:42:46;;;;;;;8.10;5.00;;;;;;;;;;761523;182;915860;-65
2021/04/23 08:45:11;;;;;;;11.60;6.13;;;;;;;;;;752423;181;920083;-66
2021/04/23 08:47:37;;;;;;;8.53;4.83;;;;;;;;;;759435;182;918909;-65
2021/04/23 08:50:03;;;;;;;7.07;4.87;;;;;;;;;;759477;182;923537;-66
2021/04/23 08:52:30;;;;;;;13.57;6.10;;;;;;;;;;755136;182;918781;-66
2021/04/23 08:54:55;;;;;;;7.93;4.00;;;;;;;;;;756208;182;946191;-66
2021/04/23 08:57:21;;;;;;;11.70;5.57;;;;;;;;;;755984;182;919737;-67
2021/04/23 08:59:47;;;;;;;9.37;5.33;;;;;;;;;;756548;182;919468;-66
2021/04/23 09:02:13;;;;;;;9.63;5.30;;;;;;;;;;752485;182;1021889;-66
2021/04/23 09:04:39;;;;;;;6.60;4.10;;;;;;;;;;759796;181;918487;-66
2021/04/23 09:07:04;;;;;;;5.20;3.50;;;;;;;;;;753081;181;997168;-66
2021/04/23 09:09:32;;;;;;;7.70;4.10;;;;;;;;;;754750;182;919291;-66
2021/04/23 09:11:58;;;;;;;6.87;3.97;;;;;;;;;;753740;181;945796;-69
2021/04/23 09:14:24;;;;;;;7.57;3.93;;;;;;;;;;762705;182;921204;-66
2021/04/23 09:16:51;;;;;;;8.87;4.80;;;;;;;;;;752503;181;919334;-66
2021/04/23 09:19:19;;;;;;;8.70;5.60;;;;;;;;;;756321;182;918932;-65
2021/04/23 09:21:45;;;;;;;18.23;5.87;;;;;;;;;;743605;185;920504;-66
2021/04/23 09:24:11;;;;;;;6.90;4.07;;;;;;;;;;752811;185;923625;-68
2021/04/23 09:26:36;;;;;;;7.80;4.60;;;;;;;;;;739820;185;1202687;-65
2021/04/23 09:29:02;;;;;;;5.73;4.00;;;;;;;;;;740705;185;919981;-67
2021/04/23 09:31:29;;;;;;;6.73;3.90;;;;;;;;;;749720;185;919727;-69
2021/04/23 09:33:56;;;;;;;6.57;4.13;;;;;;;;;;743933;182;919949;-67
2021/04/23 09:36:24;;;;;;;4.05;3.33;;;;;;;;;;756505;182;1021776;-66
2021/04/23 09:38:49;;;;;;;6.73;3.43;;;;;;;;;;754753;182;919362;-66
2021/04/23 09:41:18;;;;;;;5.60;3.43;;;;;;;;;;753609;181;919170;-66
2021/04/23 09:43:44;;;;;;;10.37;4.10;;;;;;;;;;755017;182;919535;-66
2021/04/23 09:46:10;;;;;;;8.20;3.10;;;;;;;;;;754879;183;924566;-65
2021/04/23 09:48:36;;;;;;;4.07;2.80;;;;;;;;;;754873;184;1235661;-66
2021/04/23 09:51:02;;;;;;;4.03;2.27;;;;;;;;;;761300;182;621326;-66
2021/04/23 09:53:28;;;;;;;6.37;3.20;;;;;;;;;;751974;182;866522;-67
2021/04/23 09:55:55;;;;;;;6.23;3.10;;;;;;;;;;762516;182;919303;-66
2021/04/23 09:58:21;;;;;;;6.27;3.87;;;;;;;;;;752061;182;919636;-66
2021/04/23 10:00:46;;;;;;;5.15;3.10;;;;;;;;;;753811;182;969395;-66
2021/04/23 10:03:12;;;;;;;7.10;3.50;;;;;;;;;;757950;182;901932;-68
2021/04/23 10:05:39;;;;;;;5.00;3.10;;;;;;;;;;752250;182;918564;-66
2021/04/23 10:08:07;;;;;;;8.07;3.43;;;;;;;;;;755519;182;918601;-66
2021/04/23 10:10:32;;;;;;;7.90;4.30;;;;;;;;;;751193;182;921175;-66
2021/04/23 10:13:00;;;;;;;7.40;3.00;;;;;;;;;;758282;182;923211;-66
2021/04/23 10:15:26;;;;;;;6.43;3.80;;;;;;;;;;753176;182;920218;-66
2021/04/23 10:17:52;;;;;;;9.50;3.40;;;;;;;;;;757480;182;920131;-66
2021/04/23 10:20:18;;;;;;;8.17;3.70;;;;;;;;;;754759;182;920230;-66
2021/04/23 10:22:43;;;;;;;7.33;4.07;;;;;;;;;;751368;182;918817;-67
2021/04/23 10:25:10;;;;;;;9.10;3.90;;;;;;;;;;753528;184;796896;-67
2021/04/23 10:27:36;;;;;;;5.80;3.97;;;;;;;;;;751068;182;919060;-65
2021/04/23 10:30:02;;;;;;;7.40;4.10;;;;;;;;;;754083;184;917899;-66
2021/04/23 10:32:27;;;;;;;9.37;4.93;;;;;;;;;;751946;184;918728;-66
2021/04/23 10:34:53;;;;;;;7.26;3.02;;;;;;;;;;733857;186;1021639;-67
2021/04/23 10:37:19;;;;;;;7.43;3.73;;;;;;;;;;749674;186;974020;-66
2021/04/23 10:39:46;;;;;;;12.87;5.77;;;;;;;;;;747881;184;916609;-68
2021/04/23 10:42:18;;;;;;;8.07;3.70;;;;;;;;;;764881;181;618666;-66
2021/04/23 10:44:49;;;;;;;10.13;4.90;;;;;;;;;;758076;182;638066;-66
2021/04/23 10:47:35;;;;;;;7.83;4.50;;;;;;;;;;771782;180;627991;-66
2021/04/23 10:50:04;;;;;;;6.70;4.13;;;;;;;;;;758973;185;629432;-66
2021/04/23 10:52:30;;;;;;;7.40;4.07;;;;;;;;;;762465;182;635266;-68
2021/04/23 10:55:02;;;;;;;7.00;4.40;;;;;;;;;;755366;182;857955;-66
2021/04/23 10:57:28;;;;;;;18.27;4.80;;;;;;;;;;756884;182;918871;-67
2021/04/23 10:59:56;;;;;;;7.90;4.40;;;;;;;;;;763038;181;621419;-68
2021/04/23 11:02:19;;;;;;;6.27;4.30;;;;;;;;;;755760;182;919783;-67
2021/04/23 11:04:51;;;;;;;10.60;4.93;;;;;;;;;;755121;182;920978;-66
2021/04/23 11:07:17;;;;;;;7.63;4.90;;;;;;;;;;754236;182;915868;-66
2021/04/23 11:09:43;;;;;;;8.90;5.30;;;;;;;;;;758996;182;918108;-66
2021/04/23 11:12:12;;;;;;;6.43;3.50;;;;;;;;;;741202;182;919737;-66
2021/04/23 11:14:37;;;;;;;7.18;4.07;;;;;;;;;;754587;182;1034191;-67
2021/04/23 11:17:09;;;;;;;7.67;5.00;;;;;;;;;;756919;181;1263372;-66
2021/04/23 11:19:36;;;;;;;12.27;5.40;;;;;;;;;;757707;182;918993;-66
2021/04/23 11:22:03;;;;;;;13.97;5.00;;;;;;;;;;754808;181;919619;-68
2021/04/23 11:24:29;;;;;;;7.17;4.83;;;;;;;;;;752232;182;920072;-67
2021/04/23 11:27:04;;;;;;;7.80;4.40;;;;;;;;;;758294;181;919154;-66
2021/04/23 11:29:32;;;;;;;9.03;5.90;;;;;;;;;;754958;182;911179;-66
2021/04/23 11:32:05;;;;;;;12.23;5.10;;;;;;;;;;754915;182;919486;-67
2021/04/23 11:34:31;;;;;;;12.70;5.75;;;;;;;;;;756468;182;954803;-67
2021/04/23 11:36:59;;;;;;;6.90;4.30;;;;;;;;;;756816;182;918654;-67
2021/04/23 11:39:25;;;;;;;8.77;4.53;;;;;;;;;;753277;182;919760;-66
2021/04/23 11:41:56;;;;;;;7.80;4.17;;;;;;;;;;742978;182;919129;-66
2021/04/23 11:44:28;;;;;;;10.27;4.62;;;;;;;;;;741367;186;919411;-66
2021/04/23 11:46:54;;;;;;;6.30;4.13;;;;;;;;;;751671;185;919195;-66
2021/04/23 11:49:21;;;;;;;10.70;4.73;;;;;;;;;;750697;185;918703;-67
2021/04/23 11:51:48;;;;;;;9.17;4.90;;;;;;;;;;749593;182;958360;-65
2021/04/23 11:54:14;;;;;;;9.70;4.55;;;;;;;;;;757959;181;919171;-66
2021/04/23 11:56:45;;;;;;;10.20;4.30;;;;;;;;;;768418;182;919643;-66
2021/04/23 11:59:11;;;;;;;7.03;4.67;;;;;;;;;;746872;185;919655;-67
2021/04/23 12:01:36;;;;;;;8.07;5.37;;;;;;;;;;750214;185;919627;-66
2021/04/23 12:04:02;;;;;;;12.40;4.40;;;;;;;;;;747842;186;667247;-66
2021/04/23 12:06:29;;;;;;;7.50;4.80;;;;;;;;;;761636;182;628632;-67
2021/04/23 12:08:55;;;;;;;9.63;4.70;;;;;;;;;;753212;183;905973;-66
2021/04/23 12:11:20;;;;;;;9.87;5.27;;;;;;;;;;755386;182;918900;-66
2021/04/23 12:13:46;;;;;;;9.70;5.17;;;;;;;;;;759328;181;917233;-66
2021/04/23 12:16:11;;;;;;;12.50;4.97;;;;;;;;;;759824;182;917840;-67
2021/04/23 12:18:40;;;;;;;7.37;5.33;;;;;;;;;;753548;182;918396;-66
2021/04/23 12:21:06;;;;;;;12.27;5.27;;;;;;;;;;756990;182;919279;-67
2021/04/23 12:23:32;;;;;;;12.55;4.50;;;;;;;;;;752962;182;1411274;-67
2021/04/23 12:25:59;;;;;;;11.12;5.90;;;;;;;;;;742973;186;1020248;-67
2021/04/23 12:28:25;;;;;;;9.23;4.10;;;;;;;;;;738240;185;989050;-65
2021/04/23 12:31:06;;;;;;;10.67;5.40;;;;;;;;;;751286;185;917839;-66
2021/04/23 12:33:40;;;;;;;14.10;5.00;;;;;;;;;;740480;187;915000;-68
2021/04/23 12:36:10;;;;;;;11.13;5.40;;;;;;;;;;744201;185;918419;-67
2021/04/23 12:38:38;;;;;;;7.30;4.60;;;;;;;;;;739185;186;917734;-67
2021/04/23 12:41:05;;;;;;;6.30;4.20;;;;;;;;;;738481;186;974772;-66
2021/04/23 12:43:30;;;;;;;4.90;3.70;;;;;;;;;;735074;187;977346;-66
2021/04/23 12:45:56;;;;;;;7.10;4.75;;;;;;;;;;742544;183;920836;-67
2021/04/23 12:48:22;;;;;;;5.45;3.10;;;;;;;;;;753593;182;918724;-65
2021/04/23 12:50:48;;;;;;;17.73;4.63;;;;;;;;;;757329;181;1140278;-65
2021/04/23 12:53:14;;;;;;;11.13;5.20;;;;;;;;;;761304;182;919673;-67
2021/04/23 12:55:40;;;;;;;7.82;3.75;;;;;;;;;;738173;185;919191;-67
2021/04/23 12:58:05;;;;;;;12.48;4.47;;;;;;;;;;744584;186;913685;-65
2021/04/23 13:00:32;;;;;;;7.93;4.03;;;;;;;;;;752871;182;915861;-64
2021/04/23 13:02:57;;;;;;;8.60;3.77;;;;;;;;;;756512;182;914862;-64
2021/04/23 13:05:23;;;;;;;12.48;5.00;;;;;;;;;;752971;181;918099;-68
2021/04/23 13:07:51;;;;;;;5.43;4.47;;;;;;;;;;752981;185;915915;-67
2021/04/23 13:10:15;;;;;;;10.37;5.03;;;;;;;;;;738695;185;971165;-68
2021/04/23 13:12:41;;;;;;;8.83;5.30;;;;;;;;;;747367;185;914331;-69
2021/04/23 13:15:09;;;;;;;9.93;5.00;;;;;;;;;;763814;181;909375;-67
2021/04/23 13:17:38;;;;;;;14.57;4.70;;;;;;;;;;736569;185;915985;-68
2021/04/23 13:20:04;;;;;;;8.43;5.30;;;;;;;;;;748160;185;915534;-65
2021/04/23 13:22:30;;;;;;;9.15;5.70;;;;;;;;;;745862;186;926713;-66
2021/04/23 13:25:02;;;;;;;6.47;3.77;;;;;;;;;;751809;182;915718;-65
2021/04/23 13:27:28;;;;;;;11.97;4.40;;;;;;;;;;751356;183;941259;-66
2021/04/23 13:29:54;;;;;;;21.50;4.77;;;;;;;;;;756222;182;731357;-66
2021/04/23 13:32:26;;;;;;;7.87;3.10;;;;;;;;;;756910;182;917392;-66
2021/04/23 13:34:50;;;;;;;10.93;4.97;;;;;;;;;;754491;181;917474;-69
2021/04/23 13:37:16;;;;;;;10.00;4.40;;;;;;;;;;738094;185;918845;-66
2021/04/23 13:39:42;;;;;;;11.43;4.68;;;;;;;;;;757061;182;919502;-66
2021/04/23 13:42:08;;;;;;;6.80;3.90;;;;;;;;;;755648;181;919469;-67
2021/04/23 13:44:34;;;;;;;6.78;4.25;;;;;;;;;;752111;181;1020902;-66
2021/04/23 13:46:59;;;;;;;12.17;6.33;;;;;;;;;;750577;182;917737;-67
2021/04/23 13:49:26;;;;;;;10.53;5.07;;;;;;;;;;760714;182;918780;-67
2021/04/23 13:51:52;;;;;;;7.40;4.10;;;;;;;;;;754311;182;915063;-66
2021/04/23 13:54:18;;;;;;;7.87;5.35;;;;;;;;;;755511;182;915812;-66
2021/04/23 13:56:47;;;;;;;11.17;4.87;;;;;;;;;;755086;182;912927;-69
2021/04/23 13:59:11;;;;;;;6.27;3.67;;;;;;;;;;756523;182;1097404;-67
2021/04/23 14:01:38;;;;;;;6.10;3.30;;;;;;;;;;741716;182;919363;-68
2021/04/23 14:04:04;;;;;;;7.07;3.70;;;;;;;;;;747502;181;920775;-65
2021/04/23 14:06:30;;;;;;;8.97;5.00;;;;;;;;;;761723;182;912368;-67
2021/04/23 14:08:56;;;;;;;13.43;5.10;;;;;;;;;;748331;181;919748;-67
2021/04/23 14:11:21;;;;;;;12.93;3.90;;;;;;;;;;751857;181;1040013;-66